createdAt,value
2023-02-16T00:00:17.291Z,2.05
2023-02-16T00:05:38.965Z,2.55
2023-02-16T00:11:20.918Z,2.50
2023-02-16T00:16:42.801Z,2.30
2023-02-16T00:22:06.456Z,2.53
2023-02-16T00:27:28.170Z,2.22
2023-02-16T00:32:50.620Z,2.33
2023-02-16T00:38:13.336Z,2.55
2023-02-16T00:43:35.055Z,2.28
2023-02-16T00:48:56.794Z,2.47
2023-02-16T00:54:18.670Z,2.40
2023-02-16T00:59:40.391Z,2.33
2023-02-16T01:05:02.122Z,2.00
2023-02-16T01:10:43.637Z,2.40
2023-02-16T01:16:12.476Z,2.28
2023-02-16T01:21:34.285Z,1.85
2023-02-16T01:26:56.018Z,2.15
2023-02-16T01:32:17.949Z,2.13
2023-02-16T01:37:39.772Z,2.25
2023-02-16T01:43:16.497Z,2.00
2023-02-16T01:48:38.300Z,2.67
2023-02-16T01:54:17.532Z,1.95
2023-02-16T02:00:04.943Z,2.08
2023-02-16T02:05:38.017Z,1.85
2023-02-16T02:11:35.198Z,2.30
2023-02-16T02:17:04.270Z,2.13
2023-02-16T02:22:56.685Z,2.20
2023-02-16T02:28:27.755Z,2.00
2023-02-16T02:34:13.207Z,2.00
2023-02-16T02:39:34.853Z,2.17
2023-02-16T02:45:24.616Z,2.25
2023-02-16T02:51:10.967Z,2.17
2023-02-16T02:56:51.224Z,1.95
2023-02-16T03:02:13.616Z,2.15
2023-02-16T03:07:49.411Z,2.28
2023-02-16T03:13:23.608Z,2.15
2023-02-16T03:19:06.346Z,2.10
2023-02-16T03:24:49.533Z,2.10
2023-02-16T03:30:13.015Z,2.40
2023-02-16T03:35:35.936Z,2.08
2023-02-16T03:40:57.704Z,2.22
2023-02-16T03:46:19.522Z,2.05
2023-02-16T03:51:41.321Z,1.95
2023-02-16T03:57:03.106Z,2.17
2023-02-16T04:02:26.360Z,2.03
2023-02-16T04:07:48.115Z,2.22
2023-02-16T04:13:09.901Z,2.35
2023-02-16T04:18:31.610Z,2.15
2023-02-16T04:23:53.337Z,2.17
2023-02-16T04:29:15.517Z,2.00
2023-02-16T04:34:37.249Z,2.10
2023-02-16T04:39:59.077Z,2.30
2023-02-16T04:45:20.934Z,2.00
2023-02-16T04:50:42.628Z,1.92
2023-02-16T04:56:04.622Z,2.40
2023-02-16T05:01:28.310Z,2.33
2023-02-16T05:06:50.475Z,2.00
2023-02-16T05:12:50.868Z,2.60
2023-02-16T05:18:12.586Z,2.20
2023-02-16T05:23:34.268Z,2.20
2023-02-16T05:28:56.682Z,2.30
2023-02-16T05:34:18.752Z,1.70
2023-02-16T05:39:40.795Z,1.77
2023-02-16T05:45:03.731Z,2.10
2023-02-16T05:50:25.432Z,2.10
2023-02-16T05:55:47.202Z,2.15
2023-02-16T06:01:08.916Z,2.05
2023-02-16T06:06:30.581Z,1.83
2023-02-16T06:11:52.274Z,2.00
2023-02-16T06:17:14.393Z,2.10
2023-02-16T06:22:36.107Z,1.90
2023-02-16T06:27:57.844Z,2.00
2023-02-16T06:33:19.551Z,2.95
2023-02-16T06:38:41.540Z,2.70
2023-02-16T06:44:06.659Z,2.80
2023-02-16T06:49:28.477Z,3.63
2023-02-16T06:54:50.335Z,3.97
2023-02-16T07:00:12.603Z,4.10
2023-02-16T07:05:34.606Z,3.63
2023-02-16T07:10:56.452Z,3.55
2023-02-16T07:16:18.459Z,4.13
2023-02-16T07:21:40.230Z,3.40
2023-02-16T07:27:02.021Z,3.00
2023-02-16T07:32:24.211Z,2.83
2023-02-16T07:37:45.989Z,2.78
2023-02-16T07:43:08.696Z,2.80
2023-02-16T07:48:30.421Z,3.10
2023-02-16T07:53:53.129Z,2.72
2023-02-16T07:59:17.051Z,2.80
2023-02-16T08:04:38.759Z,2.38
2023-02-16T08:10:01.264Z,2.53
2023-02-16T08:15:24.139Z,2.38
2023-02-16T08:21:02.707Z,2.20
2023-02-16T08:26:29.200Z,2.25
2023-02-16T08:31:51.896Z,2.17
2023-02-16T08:37:14.002Z,2.10
2023-02-16T08:42:37.896Z,2.10
2023-02-16T08:48:01.395Z,2.50
2023-02-16T08:53:23.486Z,1.95
2023-02-16T08:58:45.594Z,2.13
2023-02-16T09:04:07.594Z,2.47
2023-02-16T09:09:29.465Z,2.30
2023-02-16T09:14:53.555Z,1.83
2023-02-16T09:20:15.811Z,2.03
2023-02-16T09:25:39.021Z,1.60
2023-02-16T09:31:01.263Z,1.90
2023-02-16T09:36:23.157Z,1.48
2023-02-16T09:42:06.163Z,1.55
2023-02-16T09:47:31.549Z,1.88
2023-02-16T09:58:42.052Z,1.92
2023-02-16T10:04:25.571Z,2.00
2023-02-16T10:09:51.616Z,1.98
2023-02-16T10:15:20.677Z,1.48
2023-02-16T10:20:47.472Z,1.60
2023-02-16T10:26:30.318Z,1.70
2023-02-16T10:32:15.518Z,1.65
2023-02-16T10:37:52.095Z,4.00
2023-02-16T10:43:22.783Z,5.13
2023-02-16T10:48:46.616Z,6.65
2023-02-16T10:54:17.656Z,5.50
2023-02-16T10:59:44.908Z,6.28
2023-02-16T11:05:31.477Z,7.03
2023-02-16T11:10:54.458Z,6.38
2023-02-16T11:16:23.398Z,6.30
2023-02-16T11:21:52.734Z,6.38
2023-02-16T11:27:14.400Z,6.15
2023-02-16T11:32:36.349Z,5.95
2023-02-16T11:37:58.213Z,5.80
2023-02-16T11:43:20.575Z,5.18
2023-02-16T11:48:43.295Z,5.20
2023-02-16T11:54:07.893Z,5.07
2023-02-16T11:59:35.481Z,5.10
2023-02-16T12:05:00.840Z,4.82
2023-02-16T12:10:36.341Z,4.38
2023-02-16T12:16:24.086Z,4.67
2023-02-16T12:22:11.448Z,4.22
2023-02-16T12:27:42.162Z,4.00
2023-02-16T12:33:13.346Z,4.25
2023-02-16T12:38:46.640Z,4.15
2023-02-16T12:44:20.839Z,3.97
2023-02-16T12:49:47.809Z,3.67
2023-02-16T12:55:36.123Z,3.85
2023-02-16T13:01:12.306Z,3.80
2023-02-16T13:12:34.971Z,3.85
2023-02-16T13:18:01.600Z,3.20
2023-02-16T13:23:33.071Z,3.88
2023-02-16T13:29:16.724Z,3.80
2023-02-16T13:34:58.128Z,4.00
2023-02-16T13:40:53.860Z,3.70
2023-02-16T13:46:38.026Z,3.75
2023-02-16T13:52:00.831Z,4.15
2023-02-16T13:57:50.687Z,4.35
2023-02-16T14:03:38.233Z,3.95
2023-02-16T14:09:21.488Z,3.47
2023-02-16T14:14:43.238Z,3.47
2023-02-16T14:20:14.105Z,3.50
2023-02-16T14:25:38.744Z,3.42
2023-02-16T14:31:13.858Z,3.30
2023-02-16T14:36:55.716Z,3.78
2023-02-16T14:42:44.500Z,3.45
2023-02-16T14:48:22.433Z,3.47
2023-02-16T14:54:07.470Z,4.18
2023-02-16T14:59:39.594Z,3.58
2023-02-16T15:05:17.972Z,4.15
2023-02-16T15:10:40.590Z,3.33
2023-02-16T15:16:05.263Z,3.88
2023-02-16T15:21:30.903Z,3.77
2023-02-16T15:26:56.296Z,3.40
2023-02-16T15:32:18.872Z,3.50
2023-02-16T15:37:40.714Z,3.17
2023-02-16T15:43:31.961Z,3.30
2023-02-16T15:48:54.204Z,3.75
2023-02-16T15:54:15.887Z,3.05
2023-02-16T15:59:43.791Z,3.55
2023-02-16T16:05:21.010Z,2.92
2023-02-16T16:10:44.518Z,2.90
2023-02-16T16:16:10.025Z,2.78
2023-02-16T16:26:59.587Z,3.40
2023-02-16T16:32:25.287Z,3.20
2023-02-16T16:43:17.937Z,3.55
2023-02-16T16:48:45.219Z,3.05
2023-02-16T16:54:32.907Z,3.28
2023-02-16T16:59:54.677Z,3.53
2023-02-16T17:05:16.702Z,3.42
2023-02-16T17:10:40.702Z,4.53
2023-02-16T17:16:15.973Z,2.95
2023-02-16T17:21:37.710Z,4.03
2023-02-16T17:26:59.455Z,4.05
2023-02-16T17:32:23.764Z,3.45
2023-02-16T17:37:45.572Z,2.90
2023-02-16T17:43:12.801Z,2.78
2023-02-16T17:48:34.664Z,2.33
2023-02-16T17:53:56.574Z,2.38
2023-02-16T17:59:18.401Z,2.38
2023-02-16T18:04:43.192Z,2.80
2023-02-16T18:10:05.992Z,3.33
2023-02-16T18:15:27.957Z,3.25
2023-02-16T18:20:49.760Z,3.60
2023-02-16T18:26:15.723Z,3.50
2023-02-16T18:31:40.702Z,3.10
2023-02-16T18:37:05.652Z,3.80
2023-02-16T18:42:28.192Z,3.75
2023-02-16T18:47:50.032Z,2.92
2023-02-16T18:53:11.801Z,2.85
2023-02-16T18:58:34.497Z,4.65
2023-02-16T19:03:57.285Z,5.05
2023-02-16T19:09:19.678Z,4.10
2023-02-16T19:14:41.453Z,3.63
2023-02-16T19:20:03.353Z,3.40
2023-02-16T19:25:26.917Z,3.85
2023-02-16T19:30:50.206Z,3.53
2023-02-16T19:36:12.984Z,4.15
2023-02-16T19:41:38.223Z,3.90
2023-02-16T19:47:00.045Z,3.35
2023-02-16T19:52:21.904Z,3.70
2023-02-16T19:57:43.773Z,2.95
2023-02-16T20:03:06.304Z,3.35
2023-02-16T20:08:28.378Z,3.80
2023-02-16T20:13:51.614Z,2.78
2023-02-16T20:19:13.405Z,3.00
2023-02-16T20:24:35.237Z,3.40
2023-02-16T20:29:57.320Z,3.75
2023-02-16T20:35:19.117Z,4.30
2023-02-16T20:40:41.252Z,3.55
2023-02-16T20:46:04.631Z,4.00
2023-02-16T20:51:26.797Z,4.07
2023-02-16T20:56:48.670Z,3.83
2023-02-16T21:02:12.141Z,3.45
2023-02-16T21:07:33.972Z,3.20
2023-02-16T21:12:55.831Z,3.47
2023-02-16T21:18:17.631Z,3.35
2023-02-16T21:23:39.439Z,3.30
2023-02-16T21:29:01.782Z,3.13
2023-02-16T21:34:23.670Z,2.45
2023-02-16T21:40:04.248Z,2.67
2023-02-16T21:45:26.187Z,2.80
2023-02-16T21:50:47.966Z,2.60
2023-02-16T21:56:27.027Z,2.28
2023-02-16T22:01:51.856Z,2.47
2023-02-16T22:07:13.634Z,2.47
2023-02-16T22:12:35.462Z,2.30
2023-02-16T22:17:57.340Z,2.13
2023-02-16T22:23:19.084Z,1.85
2023-02-16T22:28:40.949Z,1.80
2023-02-16T22:34:05.704Z,2.00
2023-02-16T22:39:27.545Z,1.57
2023-02-16T22:44:49.467Z,1.75
2023-02-16T22:50:11.350Z,1.60
2023-02-16T22:55:33.090Z,1.45
2023-02-16T23:00:55.927Z,1.40
2023-02-16T23:06:21.015Z,1.20
2023-02-16T23:11:43.174Z,1.20
2023-02-16T23:17:05.021Z,1.42
2023-02-16T23:22:26.860Z,1.35
2023-02-16T23:27:48.728Z,1.00
2023-02-16T23:33:11.159Z,0.98
2023-02-16T23:38:32.892Z,1.30
2023-02-16T23:43:55.770Z,1.23
2023-02-16T23:49:17.705Z,1.05
2023-02-16T23:54:39.602Z,0.93
